Accueil
METAR-TAF:

METAR-TAF

Aéroports :

Dübendorf, Suisse

latitude: 47-23-55N, longitude: 8-38-53E, altitude: 448 m

Observation

Le bulletin a été fait il y a 24 minutes, à 15:20 UTC
Vent 3 kt de sud-est, variant entre est et sud
Température -1°C
Humidité 86%
Pression 1032 hPa
Visibilité: 5000 m
Nuages fragmentés à une hauteur de 700 ft

METAR: LSMD 221520Z 13003KT 090V180 5000 BKN007 M01/M03 Q1032 RMK GRN

Heure: 16:44 (15:44 UTC)


TAF: absent

Observations et prévisions météorologiques de plus de 4000 aéroports (messages METAR et TAF).

Les stations disponibles sont représentées par des disques jaunes et rouges sur la carte.

Passer la souris dessus pour voir le nom de la station.

Cliquer dessus pour voir les observations et prévisions météorologiques.

Pour changer de carte: cliquez sur les boutons verts avec une croix noire pour zoomer, sur le bouton vert avec un tiret pour effectuer un zoom arrière, ou sur les flèches vertes pour les cartes adjacentes.


METAR-TAF: